Weather History for Centralia, IL

Change the Weather History Date:

Sunday, December 15, 2013

  Actual Average (KSLO) Record (KSLO)
Temperature  
Mean Temperature 26 °F -  
Max Temperature 30 °F 43 °F 67 °F (1971)
Min Temperature 23 °F 26 °F -2 °F (1989)
Degree Days  
Heating Degree Days 38    
Moisture  
Dew Point 22 °F    
Average Humidity 83    
Maximum Humidity 91    
Minimum Humidity 76    
Precipitation  
Precipitation 0.00 in - - ()
Sea Level Pressure  
Sea Level Pressure 30.13 in    
Wind  
Wind Speed 11 mph (SW)    
Max Wind Speed 15 mph    
Max Gust Speed 21 mph    
Visibility 8 miles    
Events      
Averages and records for this station are not official NWS values.
T = Trace of Precipitation, MM = Missing Value Source: NWS Daily Summary

Daily Weather History Graph

Daily Weather History Graph

Search for Another Location

Airport:

Trip Planner

Search our weather history database for the weather conditions in past years. The results will help you decide how hot, cold, wet, or windy it might be!

Date:

Astronomy

Dec. 15, 2013 Rise Set
Actual Time 7:06 AM CST 4:36 PM CST
Civil Twilight 6:37 AM CST 5:06 PM CST
Nautical Twilight 6:03 AM CST 5:39 PM CST
Astronomical Twilight 5:31 AM CST 6:11 PM CST
Moon 3:39 PM CST (12/15) 5:23 AM CST (12/15)
Length of Visible Light 10h 29m
Length of Day
9h 29m
Waxing Gibbous, 98% of the Moon is Illuminated
Dec 15
Waxing Gibbous
Dec 17
Full
Dec 25
Last Quarter
Jan 1
New
Jan 7
First Quarter

Hourly Weather History & Observations

Time (CST) Temp. Windchill Dew Point Humidity Pressure Visibility Wind Dir Wind Speed Gust Speed Precip Events Conditions
12:15 AM 27.0 °F 15.6 °F 23.4 °F 86% 30.10 in 7.0 mi WNW 13.8 mph 20.7 mph N/A   Overcast
12:35 AM 27.0 °F 15.6 °F 23.0 °F 85% 30.11 in 7.0 mi WNW 13.8 mph - N/A   Overcast
12:55 AM 26.6 °F 15.7 °F 23.0 °F 86% 30.11 in 7.0 mi WNW 12.7 mph - N/A   Overcast
1:15 AM 26.8 °F 17.1 °F 23.4 °F 87% 30.11 in 5.0 mi WNW 10.4 mph - N/A   Overcast
1:35 AM 26.6 °F 15.2 °F 23.0 °F 86% 30.12 in 5.0 mi WNW 13.8 mph - N/A   Overcast
1:55 AM 26.6 °F 14.7 °F 22.6 °F 85% 30.11 in 7.0 mi WNW 15.0 mph 19.6 mph N/A   Overcast
2:15 AM 26.6 °F 16.2 °F 22.3 °F 84% 30.12 in 7.0 mi NW 11.5 mph 18.4 mph N/A   Overcast
2:35 AM 26.6 °F 16.8 °F 22.6 °F 85% 30.11 in 7.0 mi West 10.4 mph - N/A   Overcast
2:55 AM 26.6 °F 16.2 °F 23.0 °F 86% 30.12 in 5.0 mi West 11.5 mph - N/A   Overcast
3:15 AM 26.6 °F 16.8 °F 22.8 °F 86% 30.12 in 7.0 mi West 10.4 mph - N/A   Overcast
3:35 AM 26.6 °F 15.7 °F 21.9 °F 82% 30.12 in 7.0 mi WNW 12.7 mph 16.1 mph N/A   Overcast
3:55 AM 26.6 °F 15.2 °F 21.9 °F 82% 30.13 in 10.0 mi West 13.8 mph 18.4 mph N/A   Overcast
4:15 AM 26.1 °F 15.6 °F 21.0 °F 81% 30.13 in 10.0 mi WNW 11.5 mph - N/A   Overcast
4:35 AM 25.7 °F 14.6 °F 21.2 °F 83% 30.13 in 10.0 mi WNW 12.7 mph - N/A   Overcast
4:55 AM 25.7 °F 15.7 °F 21.4 °F 84% 30.14 in 7.0 mi West 10.4 mph - N/A   Overcast
5:15 AM 25.5 °F 13.3 °F 21.0 °F 83% 30.15 in 7.0 mi West 15.0 mph - N/A   Overcast
5:35 AM 24.4 °F 12.4 °F 19.2 °F 81% 30.15 in 10.0 mi WNW 13.8 mph - N/A   Overcast
5:55 AM 24.4 °F 15.6 °F 19.4 °F 81% 30.15 in 10.0 mi West 8.1 mph - N/A   Overcast
6:15 AM 24.4 °F 17.5 °F 19.6 °F 82% 30.14 in 7.0 mi West 5.8 mph - N/A   Overcast
6:35 AM 24.4 °F 11.9 °F 19.8 °F 82% 30.16 in 7.0 mi West 15.0 mph - N/A   Overcast
6:55 AM 23.2 °F 11.4 °F 18.3 °F 82% 30.17 in 7.0 mi West 12.7 mph - N/A   Mostly Cloudy
7:15 AM 23.0 °F 13.9 °F 18.3 °F 82% 30.17 in 7.0 mi West 8.1 mph - N/A   Mostly Cloudy
7:35 AM 23.2 °F 15.0 °F 18.5 °F 82% 30.18 in 7.0 mi West 6.9 mph - N/A   Overcast
7:55 AM 23.5 °F 15.4 °F 18.5 °F 81% 30.19 in 5.0 mi West 6.9 mph - N/A   Haze
8:15 AM 23.0 °F 13.1 °F 18.1 °F 82% 30.19 in 7.0 mi WNW 9.2 mph - N/A   Overcast
8:35 AM 23.5 °F 14.5 °F 18.5 °F 81% 30.20 in 7.0 mi WNW 8.1 mph - N/A   Overcast
8:55 AM 23.9 °F 14.2 °F 18.7 °F 80% 30.19 in 7.0 mi WNW 9.2 mph - N/A   Mostly Cloudy
9:15 AM 24.1 °F 14.4 °F 18.9 °F 80% 30.20 in 7.0 mi West 9.2 mph - N/A   Scattered Clouds
9:35 AM 24.8 °F 13.4 °F 19.4 °F 80% 30.21 in 7.0 mi West 12.7 mph 18.4 mph N/A   Mostly Cloudy
9:55 AM 25.5 °F 14.3 °F 19.6 °F 78% 30.20 in 7.0 mi WSW 12.7 mph - N/A   Overcast
10:15 AM 25.7 °F 15.1 °F 19.8 °F 78% 30.19 in 7.0 mi WSW 11.5 mph - N/A   Mostly Cloudy
10:35 AM 26.2 °F 16.4 °F 20.1 °F 78% 30.18 in 7.0 mi WSW 10.4 mph - N/A   Mostly Cloudy
10:55 AM 26.6 °F 16.2 °F 20.3 °F 77% 30.18 in 7.0 mi SW 11.5 mph - N/A   Scattered Clouds
11:15 AM 26.8 °F 16.5 °F 20.1 °F 76% 30.16 in 7.0 mi SW 11.5 mph - N/A   Scattered Clouds
11:35 AM 27.0 °F 16.7 °F 20.8 °F 78% 30.16 in 7.0 mi WSW 11.5 mph - N/A   Mostly Cloudy
11:55 AM 27.3 °F 17.1 °F 21.2 °F 78% 30.16 in 7.0 mi West 11.5 mph 17.3 mph N/A   Mostly Cloudy
12:15 PM 27.5 °F 17.4 °F 21.6 °F 78% 30.16 in 7.0 mi WSW 11.5 mph - N/A   Mostly Cloudy
12:35 PM 28.0 °F 18.1 °F 22.1 °F 78% 30.16 in 7.0 mi WSW 11.5 mph - N/A   Overcast
12:55 PM 28.4 °F 19.7 °F 22.5 °F 78% 30.14 in 7.0 mi WSW 9.2 mph - N/A   Overcast
1:15 PM 28.8 °F 20.2 °F 22.8 °F 78% 30.14 in 7.0 mi SW 9.2 mph - N/A   Mostly Cloudy
1:35 PM 28.8 °F 19.5 °F 22.1 °F 76% 30.13 in 10.0 mi SW 10.4 mph - N/A   Overcast
1:55 PM 29.1 °F 20.0 °F 22.5 °F 76% 30.13 in 10.0 mi SW 10.4 mph - N/A   Overcast
2:15 PM 29.1 °F 18.9 °F 23.2 °F 78% 30.12 in 7.0 mi SSW 12.7 mph 16.1 mph N/A   Overcast
2:35 PM 29.7 °F 20.1 °F 23.2 °F 77% 30.11 in 10.0 mi SSW 11.5 mph - N/A   Mostly Cloudy
2:55 PM 29.8 °F 20.3 °F 23.4 °F 77% 30.10 in 7.0 mi SSW 11.5 mph 16.1 mph N/A   Scattered Clouds
3:15 PM 30.0 °F 20.5 °F 23.4 °F 76% 30.10 in 10.0 mi South 11.5 mph - N/A   Clear
3:35 PM 29.7 °F 24.7 °F 23.2 °F 77% 30.12 in 10.0 mi SSW 4.6 mph - N/A   Clear
3:55 PM 29.1 °F 21.3 °F 23.0 °F 78% 30.11 in 10.0 mi South 8.1 mph - N/A   Clear
4:15 PM 28.4 °F 22.2 °F 23.0 °F 80% 30.11 in 10.0 mi South 5.8 mph - N/A   Clear
4:35 PM 27.3 °F 20.9 °F 22.5 °F 82% 30.11 in 10.0 mi South 5.8 mph - N/A   Clear
4:55 PM 27.0 °F 23.0 °F 22.1 °F 82% 30.11 in 10.0 mi SSE 3.5 mph - N/A   Scattered Clouds
5:15 PM 25.9 °F - 21.7 °F 84% 30.12 in 10.0 mi Calm Calm - N/A   Mostly Cloudy
5:35 PM 25.9 °F 20.3 °F 21.7 °F 84% 30.11 in 10.0 mi SSE 4.6 mph - N/A   Overcast
5:55 PM 26.4 °F - 22.5 °F 85% 30.12 in 10.0 mi Calm Calm - N/A   Scattered Clouds
6:15 PM 26.4 °F - 22.5 °F 85% 30.12 in 10.0 mi Calm Calm - N/A   Clear
6:35 PM 25.2 °F - 21.9 °F 87% 30.12 in 7.0 mi Calm Calm - N/A   Clear
6:55 PM 23.5 °F 17.6 °F 21.2 °F 91% 30.11 in 7.0 mi ESE 4.6 mph - N/A   Clear
7:15 PM 23.2 °F 15.0 °F 20.3 °F 89% 30.11 in 7.0 mi SE 6.9 mph - N/A   Clear
7:35 PM 25.7 °F 18.0 °F 22.3 °F 87% 30.11 in 7.0 mi SSE 6.9 mph - N/A   Clear
7:55 PM 25.5 °F 19.9 °F 22.3 °F 88% 30.11 in 7.0 mi SSE 4.6 mph - N/A   Clear
8:15 PM 26.1 °F 19.4 °F 22.8 °F 88% 30.10 in 7.0 mi SSE 5.8 mph - N/A   Clear
8:35 PM 26.6 °F 18.2 °F 23.4 °F 88% 30.10 in 7.0 mi SSE 8.1 mph - N/A   Clear
8:55 PM 27.3 °F 18.4 °F 24.3 °F 88% 30.10 in 7.0 mi SSE 9.2 mph - N/A   Scattered Clouds
9:15 PM 28.0 °F 17.5 °F 24.8 °F 88% 30.09 in 7.0 mi SSE 12.7 mph - N/A   Mostly Cloudy
9:35 PM 28.8 °F 19.5 °F 25.5 °F 88% 30.10 in 7.0 mi South 10.4 mph - N/A   Overcast
9:55 PM 29.1 °F 20.6 °F 25.7 °F 87% 30.09 in 7.0 mi South 9.2 mph - N/A   Overcast
10:15 PM 29.3 °F 20.8 °F 26.2 °F 88% 30.08 in 7.0 mi SSE 9.2 mph - N/A   Overcast
10:35 PM 29.8 °F 21.5 °F 26.4 °F 87% 30.08 in 7.0 mi South 9.2 mph 16.1 mph N/A   Overcast
10:55 PM 30.2 °F 24.3 °F 26.6 °F 86% 30.09 in 7.0 mi South 5.8 mph - N/A   Overcast
11:15 PM 30.7 °F 22.6 °F 27.0 °F 86% 30.08 in 7.0 mi South 9.2 mph - N/A   Overcast
11:35 PM 30.2 °F 24.3 °F 26.8 °F 87% 30.07 in 7.0 mi South 5.8 mph - N/A   Overcast
11:55 PM 30.2 °F 25.4 °F 27.1 °F 88% 30.06 in 7.0 mi South 4.6 mph - N/A   Overcast